createdAt,value
2023-01-13T00:01:21.244Z,101365.38
2023-01-13T00:03:48.987Z,101368.63
2023-01-13T00:06:18.911Z,101363.50
2023-01-13T00:08:51.379Z,101364.28
2023-01-13T00:11:20.153Z,101355.13
2023-01-13T00:13:47.636Z,101349.47
2023-01-13T00:16:17.496Z,101351.59
2023-01-13T00:18:45.866Z,101344.06
2023-01-13T00:21:17.295Z,101353.50
2023-01-13T00:23:45.022Z,101351.34
2023-01-13T00:26:21.859Z,101359.69
2023-01-13T00:28:49.741Z,101366.47
2023-01-13T00:31:19.704Z,101367.53
2023-01-13T00:33:51.180Z,101360.25
2023-01-13T00:36:20.601Z,101364.28
2023-01-13T00:38:48.291Z,101364.56
2023-01-13T00:41:18.225Z,101358.88
2023-01-13T00:43:46.418Z,101364.28
2023-01-13T00:46:16.679Z,101362.16
2023-01-13T00:48:44.784Z,101367.53
2023-01-13T00:51:15.911Z,101359.97
2023-01-13T00:53:45.831Z,101363.47
2023-01-13T00:56:24.413Z,101364.28
2023-01-13T00:58:58.836Z,101362.97
2023-01-13T01:01:26.502Z,101371.84
2023-01-13T01:03:54.571Z,101368.34
2023-01-13T01:06:24.483Z,101376.16
2023-01-13T01:08:53.252Z,101372.38
2023-01-13T01:11:24.185Z,101366.19
2023-01-13T01:13:52.781Z,101357.56
2023-01-13T01:16:22.900Z,101366.75
2023-01-13T01:18:52.462Z,101353.78
2023-01-13T01:21:21.138Z,101352.41
2023-01-13T01:23:48.608Z,101355.94
2023-01-13T01:26:24.587Z,101357.00
2023-01-13T01:28:52.756Z,101352.41
2023-01-13T01:31:25.867Z,101341.38
2023-01-13T01:33:54.859Z,101344.06
2023-01-13T01:36:26.293Z,101341.38
2023-01-13T01:38:56.609Z,101340.28
2023-01-13T01:41:26.654Z,101337.06
2023-01-13T01:44:08.063Z,101328.41
2023-01-13T01:46:39.186Z,101323.00
2023-01-13T01:49:12.599Z,101323.81
2023-01-13T01:51:45.810Z,101327.59
2023-01-13T01:54:20.378Z,101317.88
2023-01-13T01:56:48.321Z,101319.78
2023-01-13T01:59:16.188Z,101313.56
2023-01-13T02:01:44.509Z,101318.69
2023-01-13T02:04:17.390Z,101311.69
2023-01-13T02:06:47.599Z,101299.81
2023-01-13T02:09:15.833Z,101294.69
2023-01-13T02:12:01.817Z,101301.41
2023-01-13T02:14:30.693Z,101310.31
2023-01-13T02:17:14.588Z,101298.19
2023-01-13T02:20:00.259Z,101308.72
2023-01-13T02:23:03.298Z,101311.41
2023-01-13T02:26:10.134Z,101310.06
2023-01-13T02:29:28.537Z,101300.63
2023-01-13T02:32:05.807Z,101291.44
2023-01-13T02:34:42.452Z,101291.72
2023-01-13T02:37:19.168Z,101293.88
2023-01-13T02:39:53.235Z,101284.94
2023-01-13T02:42:52.746Z,101274.44
2023-01-13T02:45:26.949Z,101277.69
2023-01-13T02:47:58.613Z,101270.13
2023-01-13T02:50:34.620Z,101260.16
2023-01-13T02:53:08.874Z,101253.13
2023-01-13T02:55:46.939Z,101247.47
2023-01-13T02:58:18.040Z,101240.75
2023-01-13T03:00:46.585Z,101255.03
2023-01-13T03:03:14.351Z,101262.56
2023-01-13T03:05:44.122Z,101256.34
2023-01-13T03:08:22.882Z,101248.28
2023-01-13T03:11:07.613Z,101246.38
2023-01-13T03:13:47.748Z,101240.75
2023-01-13T03:16:28.380Z,101248.56
2023-01-13T03:19:11.659Z,101247.19
2023-01-13T03:22:18.169Z,101245.56
2023-01-13T03:24:55.182Z,101246.38
2023-01-13T03:27:35.817Z,101244.50
2023-01-13T03:30:33.567Z,101246.66
2023-01-13T03:33:19.707Z,101257.44
2023-01-13T03:35:51.287Z,101247.19
2023-01-13T03:38:25.511Z,101242.88
2023-01-13T03:40:58.187Z,101251.78
2023-01-13T03:43:52.631Z,101260.41
2023-01-13T03:46:29.898Z,101253.38
2023-01-13T03:49:00.087Z,101246.91
2023-01-13T03:51:31.888Z,101250.97
2023-01-13T03:54:05.809Z,101265.78
2023-01-13T03:56:41.801Z,101250.16
2023-01-13T03:59:16.685Z,101238.56
2023-01-13T04:01:51.258Z,101249.63
2023-01-13T04:04:47.820Z,101256.63
2023-01-13T04:07:39.964Z,101244.22
2023-01-13T04:10:08.987Z,101243.94
2023-01-13T04:13:01.413Z,101247.19
2023-01-13T04:15:43.074Z,101245.03
2023-01-13T04:18:33.202Z,101240.97
2023-01-13T04:21:01.872Z,101220.22
2023-01-13T04:23:29.843Z,101224.81
2023-01-13T04:25:57.452Z,101226.69
2023-01-13T04:28:25.484Z,101232.88
2023-01-13T04:30:53.366Z,101232.34
2023-01-13T04:33:21.444Z,101224.28
2023-01-13T04:35:48.945Z,101235.59
2023-01-13T04:38:18.955Z,101228.06
2023-01-13T04:40:46.714Z,101248.81
2023-01-13T04:43:15.856Z,101232.06
2023-01-13T04:45:44.181Z,101237.47
2023-01-13T04:48:12.033Z,101244.47
2023-01-13T04:50:39.805Z,101237.19
2023-01-13T04:53:07.417Z,101246.91
2023-01-13T04:55:35.351Z,101250.94
2023-01-13T04:58:05.042Z,101249.06
2023-01-13T05:00:33.155Z,101241.25
2023-01-13T05:03:00.912Z,101248.78
2023-01-13T05:05:29.366Z,101248.78
2023-01-13T05:07:57.848Z,101238.28
2023-01-13T05:10:26.375Z,101237.72
2023-01-13T05:13:12.326Z,101249.59
2023-01-13T05:15:59.599Z,101238.81
2023-01-13T05:18:29.147Z,101249.06
2023-01-13T05:20:56.688Z,101247.72
2023-01-13T05:23:42.622Z,101258.25
2023-01-13T05:26:10.112Z,101259.88
2023-01-13T05:28:37.488Z,101259.34
2023-01-13T05:31:05.280Z,101253.66
2023-01-13T05:33:34.901Z,101253.94
2023-01-13T05:36:04.212Z,101251.53
2023-01-13T05:38:31.669Z,101265.00
2023-01-13T05:41:18.789Z,101276.03
2023-01-13T05:43:46.476Z,101276.03
2023-01-13T05:46:14.946Z,101282.00
2023-01-13T05:48:43.239Z,101270.41
2023-01-13T05:51:12.421Z,101268.22
2023-01-13T05:53:40.983Z,101257.69
2023-01-13T05:56:09.445Z,101259.56
2023-01-13T05:58:37.224Z,101262.81
2023-01-13T06:01:09.609Z,101266.31
2023-01-13T06:03:38.105Z,101258.50
2023-01-13T06:06:06.153Z,101245.00
2023-01-13T06:08:33.587Z,101256.59
2023-01-13T06:11:01.039Z,101260.09
2023-01-13T06:13:28.748Z,101260.63
2023-01-13T06:15:58.286Z,101272.50
2023-01-13T06:18:26.770Z,101285.16
2023-01-13T06:20:54.759Z,101297.28
2023-01-13T06:23:22.643Z,101281.66
2023-01-13T06:26:14.496Z,101277.38
2023-01-13T06:28:42.326Z,101280.63
2023-01-13T06:31:10.768Z,101281.69
2023-01-13T06:33:44.575Z,101267.41
2023-01-13T06:36:16.833Z,101270.34
2023-01-13T06:38:48.301Z,101274.41
2023-01-13T06:41:16.990Z,101293.00
2023-01-13T06:43:44.916Z,101295.16
2023-01-13T06:46:12.348Z,101291.69
2023-01-13T06:48:39.826Z,101287.63
2023-01-13T06:51:07.389Z,101270.91
2023-01-13T06:53:34.813Z,101281.44
2023-01-13T06:56:02.309Z,101286.81
2023-01-13T06:58:29.796Z,101290.31
2023-01-13T07:01:00.630Z,101294.91
2023-01-13T07:03:28.124Z,101287.66
2023-01-13T07:05:56.459Z,101287.91
2023-01-13T07:08:24.630Z,101299.50
2023-01-13T07:10:53.077Z,101313.00
2023-01-13T07:13:39.682Z,101303.28
2023-01-13T07:16:08.536Z,101305.97
2023-01-13T07:18:36.677Z,101314.09
2023-01-13T07:21:05.928Z,101306.81
2023-01-13T07:23:36.630Z,101309.78
2023-01-13T07:26:04.617Z,101297.06
2023-01-13T07:28:32.857Z,101297.88
2023-01-13T07:31:01.183Z,101314.88
2023-01-13T07:33:28.720Z,101308.97
2023-01-13T07:36:08.591Z,101300.31
2023-01-13T07:38:36.319Z,101309.50
2023-01-13T07:41:22.155Z,101314.09
2023-01-13T07:43:50.368Z,101307.91
2023-01-13T07:46:19.080Z,101297.09
2023-01-13T07:48:48.101Z,101297.09
2023-01-13T07:51:15.991Z,101313.56
2023-01-13T07:53:43.442Z,101328.69
2023-01-13T07:56:10.808Z,101326.78
2023-01-13T07:58:38.456Z,101329.22
2023-01-13T08:01:12.280Z,101334.06
2023-01-13T08:03:40.435Z,101325.19
2023-01-13T08:06:08.398Z,101322.75
2023-01-13T08:08:36.171Z,101322.75
2023-01-13T08:11:05.806Z,101333.78
2023-01-13T08:13:33.283Z,101331.63
2023-01-13T08:16:07.574Z,101331.91
2023-01-13T08:18:35.884Z,101327.56
2023-01-13T08:21:05.879Z,101329.13
2023-01-13T08:23:33.617Z,101325.34
2023-01-13T08:26:03.314Z,101324.56
2023-01-13T08:28:31.485Z,101318.34
2023-01-13T08:31:00.752Z,101328.28
2023-01-13T08:33:29.152Z,101325.59
2023-01-13T08:35:57.188Z,101327.47
2023-01-13T08:38:25.139Z,101316.97
2023-01-13T08:40:52.677Z,101309.63
2023-01-13T08:43:20.090Z,101312.59
2023-01-13T08:45:56.764Z,101309.84
2023-01-13T08:48:24.153Z,101306.59
2023-01-13T08:50:51.531Z,101307.69
2023-01-13T08:53:20.305Z,101311.19
2023-01-13T08:55:47.720Z,101315.75
2023-01-13T08:58:16.271Z,101304.47
2023-01-13T09:00:44.242Z,101310.13
2023-01-13T09:03:11.920Z,101316.03
2023-01-13T09:05:39.823Z,101325.75
2023-01-13T09:08:07.417Z,101324.44
2023-01-13T09:10:35.831Z,101311.38
2023-01-13T09:13:12.092Z,101320.50
2023-01-13T09:15:45.387Z,101318.84
2023-01-13T09:18:13.450Z,101307.97
2023-01-13T09:20:59.495Z,101321.47
2023-01-13T09:23:28.125Z,101321.44
2023-01-13T09:25:55.661Z,101324.09
2023-01-13T09:28:23.104Z,101329.16
2023-01-13T09:30:50.584Z,101339.50
2023-01-13T09:33:36.686Z,101341.94
2023-01-13T09:36:04.279Z,101346.13
2023-01-13T09:38:31.848Z,101350.66
2023-01-13T09:40:59.291Z,101355.31
2023-01-13T09:43:52.495Z,101338.03
2023-01-13T09:46:42.907Z,101317.16
2023-01-13T09:49:22.785Z,101310.31
2023-01-13T09:52:03.451Z,101302.50
2023-01-13T09:54:38.828Z,101299.81
2023-01-13T09:57:17.031Z,101297.13
2023-01-13T09:59:45.095Z,101296.53
2023-01-13T10:02:57.878Z,101293.31
2023-01-13T10:05:41.879Z,101288.59
2023-01-13T10:08:17.397Z,101286.78
2023-01-13T10:10:48.502Z,101283.19
2023-01-13T10:13:23.721Z,101278.53
2023-01-13T10:16:16.399Z,101282.25
2023-01-13T10:19:16.170Z,101272.22
2023-01-13T10:22:10.713Z,101264.09
2023-01-13T10:25:06.111Z,101267.63
2023-01-13T10:27:40.853Z,101266.56
2023-01-13T10:30:34.181Z,101257.09
2023-01-13T10:33:10.120Z,101252.47
2023-01-13T10:35:51.404Z,101248.41
2023-01-13T10:38:40.456Z,101242.91
2023-01-13T10:41:13.987Z,101252.34
2023-01-13T10:44:02.340Z,101255.34
2023-01-13T10:46:31.877Z,101263.47
2023-01-13T10:49:01.738Z,101261.22
2023-01-13T10:51:42.237Z,101253.03
2023-01-13T10:54:13.002Z,101250.34
2023-01-13T10:56:42.860Z,101249.81
2023-01-13T10:59:27.031Z,101245.91
2023-01-13T11:02:25.953Z,101236.63
2023-01-13T11:04:53.994Z,101233.19
2023-01-13T11:07:31.693Z,101232.72
2023-01-13T11:10:31.509Z,101235.03
2023-01-13T11:13:07.090Z,101224.50
2023-01-13T11:15:50.941Z,101223.78
2023-01-13T11:18:22.362Z,101217.69
2023-01-13T11:20:51.869Z,101218.03
2023-01-13T11:23:30.005Z,101224.72
2023-01-13T11:26:04.675Z,101210.88
2023-01-13T11:28:53.381Z,101203.28
2023-01-13T11:31:33.611Z,101209.84
2023-01-13T11:34:36.087Z,101210.59
2023-01-13T11:37:09.770Z,101200.34
2023-01-13T11:40:05.951Z,101204.13
2023-01-13T11:42:45.838Z,101208.00
2023-01-13T11:45:20.357Z,101201.78
2023-01-13T11:47:51.126Z,101205.47
2023-01-13T11:50:39.765Z,101199.53
2023-01-13T11:53:16.190Z,101196.38
2023-01-13T11:56:05.707Z,101187.25
2023-01-13T11:59:21.530Z,101194.63
2023-01-13T12:02:14.479Z,101191.25
2023-01-13T12:05:11.786Z,101184.69
2023-01-13T12:08:16.545Z,101182.00
2023-01-13T12:11:57.081Z,101184.22
2023-01-13T12:15:03.630Z,101173.50
2023-01-13T12:17:59.051Z,101168.78
2023-01-13T12:20:41.586Z,101168.44
2023-01-13T12:23:27.062Z,101163.34
2023-01-13T12:25:59.735Z,101159.91
2023-01-13T12:28:51.453Z,101159.28
2023-01-13T12:31:20.994Z,101151.19
2023-01-13T12:34:05.159Z,101138.59
2023-01-13T12:36:50.977Z,101141.47
2023-01-13T12:39:29.548Z,101139.72
2023-01-13T12:42:28.266Z,101140.59
2023-01-13T12:45:11.072Z,101128.28
2023-01-13T12:47:40.157Z,101122.56
2023-01-13T12:50:23.798Z,101125.84
2023-01-13T12:52:56.515Z,101127.53
2023-01-13T12:55:27.736Z,101126.63
2023-01-13T12:57:59.566Z,101122.03
2023-01-13T13:00:42.297Z,101114.19
2023-01-13T13:03:12.749Z,101104.81
2023-01-13T13:05:55.109Z,101105.91
2023-01-13T13:08:50.439Z,101104.78
2023-01-13T13:11:41.037Z,101097.91
2023-01-13T13:14:13.832Z,101102.28
2023-01-13T13:16:47.837Z,101110.41
2023-01-13T13:19:18.339Z,101109.31
2023-01-13T13:22:18.017Z,101108.50
2023-01-13T13:24:48.619Z,101104.78
2023-01-13T13:27:24.792Z,101101.75
2023-01-13T13:30:04.737Z,101105.44
2023-01-13T13:32:38.463Z,101100.22
2023-01-13T13:35:23.896Z,101108.69
2023-01-13T13:38:19.636Z,101103.53
2023-01-13T13:41:06.489Z,101103.06
2023-01-13T13:44:02.240Z,101101.47
2023-01-13T13:46:47.982Z,101100.88
2023-01-13T13:49:21.593Z,101095.25
2023-01-13T13:51:59.998Z,101099.78
2023-01-13T13:54:28.047Z,101101.59
2023-01-13T13:56:55.718Z,101093.06
2023-01-13T13:59:26.091Z,101082.38
2023-01-13T14:02:03.976Z,101087.00
2023-01-13T14:04:35.586Z,101083.19
2023-01-13T14:07:18.076Z,101084.50
2023-01-13T14:09:56.607Z,101086.03
2023-01-13T14:12:26.077Z,101083.63
2023-01-13T14:14:57.069Z,101084.41
2023-01-13T14:17:29.954Z,101095.50
2023-01-13T14:20:14.798Z,101097.78
2023-01-13T14:22:48.012Z,101089.03
2023-01-13T14:25:34.436Z,101097.50
2023-01-13T14:28:17.019Z,101090.84
2023-01-13T14:30:44.717Z,101095.28
2023-01-13T14:33:18.352Z,101114.78
2023-01-13T14:36:16.810Z,101110.16
2023-01-13T14:38:47.310Z,101112.47
2023-01-13T14:41:20.821Z,101095.53
2023-01-13T14:43:50.075Z,101102.38
2023-01-13T14:46:18.093Z,101113.44
2023-01-13T14:48:48.270Z,101107.41
2023-01-13T14:51:27.934Z,101104.06
2023-01-13T14:53:57.275Z,101101.59
2023-01-13T14:56:49.167Z,101110.56
2023-01-13T14:59:42.769Z,101106.88
2023-01-13T15:02:25.399Z,101113.91
2023-01-13T15:04:59.056Z,101104.44
2023-01-13T15:07:27.669Z,101108.34
2023-01-13T15:09:58.494Z,101101.09
2023-01-13T15:12:39.512Z,101100.13
2023-01-13T15:15:20.451Z,101104.00
2023-01-13T15:17:47.980Z,101091.63
2023-01-13T15:20:17.241Z,101092.53
2023-01-13T15:22:44.844Z,101101.06
2023-01-13T15:25:12.326Z,101108.81
2023-01-13T15:27:39.753Z,101119.00
2023-01-13T15:30:15.779Z,101118.94
2023-01-13T15:32:43.407Z,101121.03
2023-01-13T15:35:14.258Z,101119.38
2023-01-13T15:37:43.513Z,101106.94
2023-01-13T15:40:15.146Z,101102.47
2023-01-13T15:43:01.144Z,101104.03
2023-01-13T15:45:47.487Z,101104.41
2023-01-13T15:48:15.102Z,101108.66
2023-01-13T15:50:42.703Z,101101.97
2023-01-13T15:53:14.542Z,101099.34
2023-01-13T15:55:44.976Z,101105.44
2023-01-13T15:58:13.931Z,101112.78
2023-01-13T16:00:42.570Z,101123.41
2023-01-13T16:03:14.308Z,101129.34
2023-01-13T16:05:42.669Z,101135.84
2023-01-13T16:08:18.848Z,101136.38
2023-01-13T16:10:46.577Z,101139.38
2023-01-13T16:13:14.704Z,101153.53
2023-01-13T16:15:44.860Z,101153.78
2023-01-13T16:18:21.955Z,101149.22
2023-01-13T16:20:52.945Z,101149.03
2023-01-13T16:23:20.621Z,101150.94
2023-01-13T16:25:49.060Z,101143.66
2023-01-13T16:28:26.152Z,101141.06
2023-01-13T16:30:54.267Z,101145.03
2023-01-13T16:33:21.986Z,101136.00
2023-01-13T16:36:09.780Z,101148.56
2023-01-13T16:38:37.946Z,101166.97
2023-01-13T16:41:05.541Z,101164.22
2023-01-13T16:43:33.644Z,101155.06
2023-01-13T16:46:01.120Z,101163.72
2023-01-13T16:48:28.502Z,101166.16
2023-01-13T16:50:56.068Z,101158.84
2023-01-13T16:53:23.560Z,101161.31
2023-01-13T16:55:50.937Z,101167.00
2023-01-13T16:58:20.491Z,101177.13
2023-01-13T17:00:48.274Z,101172.34
2023-01-13T17:03:16.651Z,101183.22
2023-01-13T17:05:47.576Z,101188.09
2023-01-13T17:08:17.839Z,101177.19
2023-01-13T17:10:46.738Z,101178.81
2023-01-13T17:13:16.735Z,101177.50
2023-01-13T17:15:45.639Z,101188.59
2023-01-13T17:18:13.691Z,101198.09
2023-01-13T17:20:41.707Z,101197.00
2023-01-13T17:23:09.031Z,101194.81
2023-01-13T17:25:36.379Z,101193.50
2023-01-13T17:28:03.946Z,101193.75
2023-01-13T17:30:31.366Z,101196.47
2023-01-13T17:32:58.774Z,101202.72
2023-01-13T17:35:26.218Z,101195.44
2023-01-13T17:37:54.112Z,101202.97
2023-01-13T17:40:21.631Z,101208.69
2023-01-13T17:42:49.028Z,101207.66
2023-01-13T17:45:16.622Z,101200.66
2023-01-13T17:47:44.097Z,101207.41
2023-01-13T17:50:11.614Z,101200.34
2023-01-13T17:52:39.086Z,101212.00
2023-01-13T17:55:06.532Z,101216.09
2023-01-13T17:57:35.475Z,101209.91
2023-01-13T18:00:04.540Z,101209.41
2023-01-13T18:02:39.675Z,101206.69
2023-01-13T18:05:07.621Z,101213.97
2023-01-13T18:07:35.006Z,101229.91
2023-01-13T18:10:02.364Z,101233.75
2023-01-13T18:12:29.937Z,101240.53
2023-01-13T18:14:57.272Z,101240.56
2023-01-13T18:17:24.643Z,101226.78
2023-01-13T18:20:10.708Z,101224.69
2023-01-13T18:22:56.876Z,101223.88
2023-01-13T18:25:42.868Z,101227.69
2023-01-13T18:28:10.299Z,101236.31
2023-01-13T18:30:37.754Z,101237.66
2023-01-13T18:33:05.213Z,101233.63
2023-01-13T18:35:32.693Z,101234.16
2023-01-13T18:38:00.115Z,101252.53
2023-01-13T18:40:27.813Z,101253.59
2023-01-13T18:42:55.706Z,101268.47
2023-01-13T18:45:31.589Z,101263.88
2023-01-13T18:48:02.049Z,101254.44
2023-01-13T18:50:30.086Z,101259.00
2023-01-13T18:52:57.562Z,101262.50
2023-01-13T18:55:25.562Z,101262.81
2023-01-13T18:57:53.728Z,101269.31
2023-01-13T19:00:22.368Z,101274.69
2023-01-13T19:05:35.308Z,101275.22
2023-01-13T19:08:03.855Z,101277.94
2023-01-13T19:10:32.690Z,101287.66
2023-01-13T19:13:01.870Z,101278.75
2023-01-13T19:15:29.943Z,101280.66
2023-01-13T19:17:57.539Z,101279.03
2023-01-13T19:20:25.003Z,101284.44
2023-01-13T19:22:54.542Z,101288.22
2023-01-13T19:25:22.116Z,101295.50
2023-01-13T19:27:49.528Z,101295.22
2023-01-13T19:30:17.633Z,101300.34
2023-01-13T19:32:44.998Z,101291.72
2023-01-13T19:35:13.280Z,101289.53
2023-01-13T19:37:41.081Z,101292.50
2023-01-13T19:40:10.302Z,101292.50
2023-01-13T19:42:56.378Z,101288.19
2023-01-13T19:45:26.804Z,101280.34
2023-01-13T19:47:55.709Z,101283.34
2023-01-13T19:50:24.253Z,101279.56
2023-01-13T19:52:52.072Z,101280.63
2023-01-13T19:55:19.839Z,101286.03
2023-01-13T19:57:47.346Z,101289.28
2023-01-13T20:00:20.562Z,101308.69
2023-01-13T20:02:49.917Z,101302.75
2023-01-13T20:05:26.026Z,101302.75
2023-01-13T20:07:54.085Z,101292.22
2023-01-13T20:10:23.241Z,101297.34
2023-01-13T20:12:50.823Z,101286.81
2023-01-13T20:15:18.229Z,101291.91
2023-01-13T20:17:45.687Z,101279.78
2023-01-13T20:20:14.977Z,101292.16
2023-01-13T20:22:42.723Z,101299.13
2023-01-13T20:25:11.410Z,101290.50
2023-01-13T20:27:39.416Z,101285.66
2023-01-13T20:30:09.605Z,101281.91
2023-01-13T20:32:37.971Z,101290.25
2023-01-13T20:35:07.322Z,101283.81
2023-01-13T20:37:37.447Z,101285.47
2023-01-13T20:40:06.374Z,101285.72
2023-01-13T20:42:42.485Z,101295.69
2023-01-13T20:45:11.010Z,101293.81
2023-01-13T20:47:38.510Z,101291.13
2023-01-13T20:50:07.024Z,101291.38
2023-01-13T20:52:35.313Z,101276.81
2023-01-13T20:55:02.857Z,101281.94
2023-01-13T20:57:31.099Z,101279.50
2023-01-13T21:00:00.106Z,101288.13
2023-01-13T21:02:29.034Z,101284.91
2023-01-13T21:04:57.452Z,101281.13
2023-01-13T21:07:25.094Z,101283.84
2023-01-13T21:09:52.723Z,101298.94
2023-01-13T21:12:40.021Z,101294.34
2023-01-13T21:15:19.060Z,101290.06
2023-01-13T21:18:27.752Z,101281.13
2023-01-13T21:21:11.513Z,101276.81
2023-01-13T21:23:43.186Z,101285.69
2023-01-13T21:26:11.597Z,101286.78
2023-01-13T21:28:39.127Z,101292.47
2023-01-13T21:31:09.237Z,101293.56
2023-01-13T21:33:37.362Z,101294.59
2023-01-13T21:36:09.406Z,101297.56
2023-01-13T21:38:36.885Z,101308.03
2023-01-13T21:41:07.369Z,101307.50
2023-01-13T21:43:55.559Z,101310.69
2023-01-13T21:46:42.995Z,101308.25
2023-01-13T21:49:10.395Z,101303.41
2023-01-13T21:51:37.771Z,101304.75
2023-01-13T21:54:05.234Z,101310.72
2023-01-13T21:56:32.626Z,101313.13
2023-01-13T21:58:59.910Z,101322.22
2023-01-13T22:01:27.375Z,101313.31
2023-01-13T22:04:12.839Z,101322.53
2023-01-13T22:06:40.351Z,101316.91
2023-01-13T22:09:07.726Z,101318.22
2023-01-13T22:11:35.053Z,101322.28
2023-01-13T22:14:13.719Z,101329.31
2023-01-13T22:16:49.032Z,101328.44
2023-01-13T22:19:18.305Z,101332.13
2023-01-13T22:21:45.675Z,101345.88
2023-01-13T22:24:13.410Z,101336.47
2023-01-13T22:26:40.783Z,101333.78
2023-01-13T22:29:08.161Z,101335.88
2023-01-13T22:31:35.631Z,101336.16
2023-01-13T22:34:03.051Z,101342.91
2023-01-13T22:36:30.383Z,101342.66
2023-01-13T22:39:00.581Z,101338.31
2023-01-13T22:41:28.050Z,101338.44
2023-01-13T22:43:55.406Z,101346.81
2023-01-13T22:46:23.693Z,101343.56
2023-01-13T22:48:53.794Z,101337.03
2023-01-13T22:51:22.734Z,101335.19
2023-01-13T22:53:51.181Z,101336.81
2023-01-13T22:56:21.612Z,101341.81
2023-01-13T22:59:00.354Z,101338.28
2023-01-13T23:01:30.505Z,101348.97
2023-01-13T23:03:58.839Z,101341.16
2023-01-13T23:06:27.592Z,101342.50
2023-01-13T23:08:55.743Z,101338.66
2023-01-13T23:11:26.894Z,101336.25
2023-01-13T23:14:00.114Z,101347.53
2023-01-13T23:16:28.995Z,101357.00
2023-01-13T23:18:56.841Z,101362.28
2023-01-13T23:21:27.603Z,101373.84
2023-01-13T23:23:57.251Z,101369.75
2023-01-13T23:26:27.198Z,101364.13
2023-01-13T23:29:02.215Z,101366.06
2023-01-13T23:31:29.605Z,101367.09
2023-01-13T23:33:57.270Z,101364.72
2023-01-13T23:36:26.504Z,101359.28
2023-01-13T23:38:54.265Z,101361.13
2023-01-13T23:41:24.005Z,101368.38
2023-01-13T23:43:52.519Z,101386.41
2023-01-13T23:46:20.359Z,101378.84
2023-01-13T23:48:48.562Z,101386.34
2023-01-13T23:51:16.200Z,101389.31
2023-01-13T23:53:46.127Z,101394.97
2023-01-13T23:56:16.690Z,101385.69
2023-01-13T23:58:44.375Z,101399.13
